sensor_id;sensor_type;location;lat;lon;timestamp;P1;durP1;ratioP1;P2;durP2;ratioP2
29218;SDS011;16421;50.202;7.852;2023-03-01T00:00:07;5.70;;;3.95;;
29218;SDS011;16421;50.202;7.852;2023-03-01T00:05:12;7.20;;;4.25;;
29218;SDS011;16421;50.202;7.852;2023-03-01T00:10:17;7.03;;;4.78;;
29218;SDS011;16421;50.202;7.852;2023-03-01T00:15:20;10.60;;;4.97;;
29218;SDS011;16421;50.202;7.852;2023-03-01T00:20:24;7.50;;;4.70;;
29218;SDS011;16421;50.202;7.852;2023-03-01T00:25:29;8.50;;;4.70;;
29218;SDS011;16421;50.202;7.852;2023-03-01T00:30:32;9.90;;;4.63;;
29218;SDS011;16421;50.202;7.852;2023-03-01T00:35:36;11.65;;;5.00;;
29218;SDS011;16421;50.202;7.852;2023-03-01T00:40:41;9.98;;;5.40;;
29218;SDS011;16421;50.202;7.852;2023-03-01T00:45:45;10.90;;;5.90;;
29218;SDS011;16421;50.202;7.852;2023-03-01T00:50:48;7.45;;;4.68;;
29218;SDS011;16421;50.202;7.852;2023-03-01T00:55:53;9.48;;;5.57;;
29218;SDS011;16421;50.202;7.852;2023-03-01T01:01:00;10.15;;;4.78;;
29218;SDS011;16421;50.202;7.852;2023-03-01T01:06:19;9.38;;;4.90;;
29218;SDS011;16421;50.202;7.852;2023-03-01T01:11:26;7.70;;;4.85;;
29218;SDS011;16421;50.202;7.852;2023-03-01T01:16:32;7.47;;;4.35;;
29218;SDS011;16421;50.202;7.852;2023-03-01T01:21:35;9.10;;;4.57;;
29218;SDS011;16421;50.202;7.852;2023-03-01T01:26:40;8.02;;;4.40;;
29218;SDS011;16421;50.202;7.852;2023-03-01T01:31:44;7.97;;;4.40;;
29218;SDS011;16421;50.202;7.852;2023-03-01T01:36:48;9.50;;;4.25;;
29218;SDS011;16421;50.202;7.852;2023-03-01T01:47:00;5.38;;;3.75;;
29218;SDS011;16421;50.202;7.852;2023-03-01T01:52:08;5.50;;;3.85;;
29218;SDS011;16421;50.202;7.852;2023-03-01T01:57:16;5.25;;;3.85;;
29218;SDS011;16421;50.202;7.852;2023-03-01T02:02:23;6.80;;;3.92;;
29218;SDS011;16421;50.202;7.852;2023-03-01T02:07:27;6.18;;;3.80;;
29218;SDS011;16421;50.202;7.852;2023-03-01T02:12:32;5.40;;;3.67;;
29218;SDS011;16421;50.202;7.852;2023-03-01T02:17:38;6.05;;;3.60;;
29218;SDS011;16421;50.202;7.852;2023-03-01T02:22:42;6.93;;;4.00;;
29218;SDS011;16421;50.202;7.852;2023-03-01T02:27:49;5.57;;;3.97;;
29218;SDS011;16421;50.202;7.852;2023-03-01T02:33:00;6.43;;;3.88;;
29218;SDS011;16421;50.202;7.852;2023-03-01T02:38:07;5.72;;;3.78;;
29218;SDS011;16421;50.202;7.852;2023-03-01T02:43:11;6.18;;;3.72;;
29218;SDS011;16421;50.202;7.852;2023-03-01T02:48:17;5.03;;;3.45;;
29218;SDS011;16421;50.202;7.852;2023-03-01T02:53:23;6.45;;;3.92;;
29218;SDS011;16421;50.202;7.852;2023-03-01T02:58:33;7.40;;;4.13;;
29218;SDS011;16421;50.202;7.852;2023-03-01T03:04:13;6.97;;;4.25;;
29218;SDS011;16421;50.202;7.852;2023-03-01T03:09:21;5.85;;;3.67;;
29218;SDS011;16421;50.202;7.852;2023-03-01T03:14:25;6.15;;;3.97;;
29218;SDS011;16421;50.202;7.852;2023-03-01T03:19:30;7.15;;;3.85;;
29218;SDS011;16421;50.202;7.852;2023-03-01T03:24:33;7.68;;;4.28;;
29218;SDS011;16421;50.202;7.852;2023-03-01T03:29:42;6.63;;;4.68;;
29218;SDS011;16421;50.202;7.852;2023-03-01T03:34:46;6.80;;;4.15;;
29218;SDS011;16421;50.202;7.852;2023-03-01T03:39:50;6.40;;;4.05;;
29218;SDS011;16421;50.202;7.852;2023-03-01T03:44:55;5.17;;;3.73;;
29218;SDS011;16421;50.202;7.852;2023-03-01T03:50:00;5.75;;;3.83;;
29218;SDS011;16421;50.202;7.852;2023-03-01T03:55:04;5.80;;;4.17;;
29218;SDS011;16421;50.202;7.852;2023-03-01T04:00:12;8.10;;;4.78;;
29218;SDS011;16421;50.202;7.852;2023-03-01T04:05:18;7.07;;;4.22;;
29218;SDS011;16421;50.202;7.852;2023-03-01T04:10:22;9.30;;;4.95;;
29218;SDS011;16421;50.202;7.852;2023-03-01T04:15:26;6.15;;;4.05;;
29218;SDS011;16421;50.202;7.852;2023-03-01T04:20:32;8.23;;;4.32;;
29218;SDS011;16421;50.202;7.852;2023-03-01T04:25:37;7.53;;;4.65;;
29218;SDS011;16421;50.202;7.852;2023-03-01T04:30:42;5.68;;;3.80;;
29218;SDS011;16421;50.202;7.852;2023-03-01T04:35:47;7.70;;;4.35;;
29218;SDS011;16421;50.202;7.852;2023-03-01T04:40:51;8.23;;;4.00;;
29218;SDS011;16421;50.202;7.852;2023-03-01T04:45:54;6.43;;;4.50;;
29218;SDS011;16421;50.202;7.852;2023-03-01T04:51:05;6.97;;;4.35;;
29218;SDS011;16421;50.202;7.852;2023-03-01T04:56:09;8.20;;;4.95;;
29218;SDS011;16421;50.202;7.852;2023-03-01T05:01:16;7.47;;;5.20;;
29218;SDS011;16421;50.202;7.852;2023-03-01T05:06:24;5.93;;;3.88;;
29218;SDS011;16421;50.202;7.852;2023-03-01T05:11:27;7.35;;;4.85;;
29218;SDS011;16421;50.202;7.852;2023-03-01T05:16:35;10.57;;;5.93;;
29218;SDS011;16421;50.202;7.852;2023-03-01T05:21:40;8.75;;;5.07;;
29218;SDS011;16421;50.202;7.852;2023-03-01T05:26:59;7.55;;;5.05;;
29218;SDS011;16421;50.202;7.852;2023-03-01T05:32:04;11.20;;;5.60;;
29218;SDS011;16421;50.202;7.852;2023-03-01T05:37:09;10.63;;;4.95;;
29218;SDS011;16421;50.202;7.852;2023-03-01T05:42:13;8.18;;;5.22;;
29218;SDS011;16421;50.202;7.852;2023-03-01T05:47:16;7.90;;;4.82;;
29218;SDS011;16421;50.202;7.852;2023-03-01T05:52:21;6.65;;;4.25;;
29218;SDS011;16421;50.202;7.852;2023-03-01T05:57:24;8.75;;;5.30;;
29218;SDS011;16421;50.202;7.852;2023-03-01T06:02:30;8.30;;;5.25;;
29218;SDS011;16421;50.202;7.852;2023-03-01T06:07:35;7.15;;;4.65;;
29218;SDS011;16421;50.202;7.852;2023-03-01T06:12:39;8.20;;;5.22;;
29218;SDS011;16421;50.202;7.852;2023-03-01T06:22:50;8.98;;;4.32;;
29218;SDS011;16421;50.202;7.852;2023-03-01T06:27:55;8.88;;;4.80;;
29218;SDS011;16421;50.202;7.852;2023-03-01T06:32:58;10.48;;;6.03;;
29218;SDS011;16421;50.202;7.852;2023-03-01T06:38:04;9.45;;;6.13;;
29218;SDS011;16421;50.202;7.852;2023-03-01T06:43:09;10.48;;;6.22;;
29218;SDS011;16421;50.202;7.852;2023-03-01T06:48:12;8.85;;;5.07;;
29218;SDS011;16421;50.202;7.852;2023-03-01T06:53:20;9.18;;;5.35;;
29218;SDS011;16421;50.202;7.852;2023-03-01T06:58:23;10.27;;;5.47;;
29218;SDS011;16421;50.202;7.852;2023-03-01T07:03:27;12.60;;;6.05;;
29218;SDS011;16421;50.202;7.852;2023-03-01T07:08:32;9.18;;;5.22;;
29218;SDS011;16421;50.202;7.852;2023-03-01T07:13:36;8.32;;;4.85;;
29218;SDS011;16421;50.202;7.852;2023-03-01T07:18:40;10.15;;;5.82;;
29218;SDS011;16421;50.202;7.852;2023-03-01T07:23:46;10.63;;;5.40;;
29218;SDS011;16421;50.202;7.852;2023-03-01T07:28:50;9.82;;;5.38;;
29218;SDS011;16421;50.202;7.852;2023-03-01T07:33:54;11.20;;;6.60;;
29218;SDS011;16421;50.202;7.852;2023-03-01T07:38:59;10.55;;;5.95;;
29218;SDS011;16421;50.202;7.852;2023-03-01T07:44:04;13.48;;;7.22;;
29218;SDS011;16421;50.202;7.852;2023-03-01T07:49:08;9.15;;;5.55;;
29218;SDS011;16421;50.202;7.852;2023-03-01T07:54:12;10.13;;;5.93;;
29218;SDS011;16421;50.202;7.852;2023-03-01T07:59:16;8.15;;;5.32;;
29218;SDS011;16421;50.202;7.852;2023-03-01T08:04:20;11.65;;;6.65;;
29218;SDS011;16421;50.202;7.852;2023-03-01T08:09:26;8.77;;;6.15;;
29218;SDS011;16421;50.202;7.852;2023-03-01T08:14:30;9.15;;;5.60;;
29218;SDS011;16421;50.202;7.852;2023-03-01T08:19:34;10.60;;;6.45;;
29218;SDS011;16421;50.202;7.852;2023-03-01T08:24:39;8.43;;;5.13;;
29218;SDS011;16421;50.202;7.852;2023-03-01T08:29:43;10.40;;;5.90;;
29218;SDS011;16421;50.202;7.852;2023-03-01T08:34:47;10.52;;;6.85;;
29218;SDS011;16421;50.202;7.852;2023-03-01T08:39:56;10.65;;;7.03;;
29218;SDS011;16421;50.202;7.852;2023-03-01T08:45:00;8.45;;;5.95;;
29218;SDS011;16421;50.202;7.852;2023-03-01T08:50:04;14.40;;;8.88;;
29218;SDS011;16421;50.202;7.852;2023-03-01T08:55:13;14.20;;;8.75;;
29218;SDS011;16421;50.202;7.852;2023-03-01T09:00:19;16.52;;;9.75;;
29218;SDS011;16421;50.202;7.852;2023-03-01T09:05:24;12.88;;;8.35;;
29218;SDS011;16421;50.202;7.852;2023-03-01T09:10:29;13.05;;;8.35;;
29218;SDS011;16421;50.202;7.852;2023-03-01T09:15:32;12.70;;;8.35;;
29218;SDS011;16421;50.202;7.852;2023-03-01T09:20:36;12.75;;;9.57;;
29218;SDS011;16421;50.202;7.852;2023-03-01T09:25:41;11.20;;;7.90;;
29218;SDS011;16421;50.202;7.852;2023-03-01T09:30:45;14.18;;;8.40;;
29218;SDS011;16421;50.202;7.852;2023-03-01T09:35:48;14.02;;;9.52;;
29218;SDS011;16421;50.202;7.852;2023-03-01T09:40:54;14.50;;;9.82;;
29218;SDS011;16421;50.202;7.852;2023-03-01T09:45:58;16.60;;;9.32;;
29218;SDS011;16421;50.202;7.852;2023-03-01T09:51:05;12.68;;;8.63;;
29218;SDS011;16421;50.202;7.852;2023-03-01T09:56:17;13.25;;;8.93;;
29218;SDS011;16421;50.202;7.852;2023-03-01T10:01:28;12.68;;;8.63;;
29218;SDS011;16421;50.202;7.852;2023-03-01T10:06:36;14.88;;;8.43;;
29218;SDS011;16421;50.202;7.852;2023-03-01T10:11:45;17.00;;;10.55;;
29218;SDS011;16421;50.202;7.852;2023-03-01T10:16:52;15.88;;;10.48;;
29218;SDS011;16421;50.202;7.852;2023-03-01T10:22:01;14.82;;;9.23;;
29218;SDS011;16421;50.202;7.852;2023-03-01T10:27:09;14.85;;;10.10;;
29218;SDS011;16421;50.202;7.852;2023-03-01T10:32:18;13.48;;;9.35;;
29218;SDS011;16421;50.202;7.852;2023-03-01T10:37:25;15.30;;;9.48;;
29218;SDS011;16421;50.202;7.852;2023-03-01T10:42:31;13.85;;;8.35;;
29218;SDS011;16421;50.202;7.852;2023-03-01T10:47:36;13.82;;;9.05;;
29218;SDS011;16421;50.202;7.852;2023-03-01T10:52:41;13.63;;;8.65;;
29218;SDS011;16421;50.202;7.852;2023-03-01T10:58:11;14.85;;;7.60;;
29218;SDS011;16421;50.202;7.852;2023-03-01T11:03:22;13.23;;;8.63;;
29218;SDS011;16421;50.202;7.852;2023-03-01T11:08:31;12.68;;;8.18;;
29218;SDS011;16421;50.202;7.852;2023-03-01T11:13:38;11.82;;;7.78;;
29218;SDS011;16421;50.202;7.852;2023-03-01T11:18:55;17.60;;;10.70;;
29218;SDS011;16421;50.202;7.852;2023-03-01T11:24:01;18.80;;;11.75;;
29218;SDS011;16421;50.202;7.852;2023-03-01T11:29:11;14.93;;;9.23;;
29218;SDS011;16421;50.202;7.852;2023-03-01T11:34:23;12.57;;;8.35;;
29218;SDS011;16421;50.202;7.852;2023-03-01T11:39:39;14.20;;;9.05;;
29218;SDS011;16421;50.202;7.852;2023-03-01T11:44:49;12.48;;;7.82;;
29218;SDS011;16421;50.202;7.852;2023-03-01T11:50:05;10.60;;;6.75;;
29218;SDS011;16421;50.202;7.852;2023-03-01T11:55:26;12.30;;;7.30;;
29218;SDS011;16421;50.202;7.852;2023-03-01T12:00:47;12.40;;;7.45;;
29218;SDS011;16421;50.202;7.852;2023-03-01T12:06:12;13.73;;;8.10;;
29218;SDS011;16421;50.202;7.852;2023-03-01T12:11:34;12.13;;;8.07;;
29218;SDS011;16421;50.202;7.852;2023-03-01T12:16:58;9.98;;;7.13;;
29218;SDS011;16421;50.202;7.852;2023-03-01T12:22:17;8.85;;;5.95;;
29218;SDS011;16421;50.202;7.852;2023-03-01T12:27:37;6.72;;;4.95;;
29218;SDS011;16421;50.202;7.852;2023-03-01T12:32:59;10.85;;;7.32;;
29218;SDS011;16421;50.202;7.852;2023-03-01T12:38:16;7.53;;;5.50;;
29218;SDS011;16421;50.202;7.852;2023-03-01T12:43:34;7.30;;;4.85;;
29218;SDS011;16421;50.202;7.852;2023-03-01T12:48:50;9.20;;;5.70;;
29218;SDS011;16421;50.202;7.852;2023-03-01T12:59:12;7.38;;;5.63;;
29218;SDS011;16421;50.202;7.852;2023-03-01T13:04:31;9.48;;;6.10;;
29218;SDS011;16421;50.202;7.852;2023-03-01T13:09:57;9.55;;;5.95;;
29218;SDS011;16421;50.202;7.852;2023-03-01T13:20:29;12.80;;;6.80;;
29218;SDS011;16421;50.202;7.852;2023-03-01T13:25:45;9.35;;;6.10;;
29218;SDS011;16421;50.202;7.852;2023-03-01T13:31:09;11.23;;;5.75;;
29218;SDS011;16421;50.202;7.852;2023-03-01T13:36:47;8.25;;;5.68;;
29218;SDS011;16421;50.202;7.852;2023-03-01T13:41:52;7.82;;;5.20;;
29218;SDS011;16421;50.202;7.852;2023-03-01T13:46:57;8.50;;;5.95;;
29218;SDS011;16421;50.202;7.852;2023-03-01T13:52:06;7.05;;;4.90;;
29218;SDS011;16421;50.202;7.852;2023-03-01T13:57:26;7.63;;;5.25;;
29218;SDS011;16421;50.202;7.852;2023-03-01T14:02:32;9.20;;;5.82;;
29218;SDS011;16421;50.202;7.852;2023-03-01T14:07:38;10.52;;;6.28;;
29218;SDS011;16421;50.202;7.852;2023-03-01T14:12:43;8.87;;;5.17;;
29218;SDS011;16421;50.202;7.852;2023-03-01T14:17:52;8.18;;;5.63;;
29218;SDS011;16421;50.202;7.852;2023-03-01T14:23:08;6.32;;;4.63;;
29218;SDS011;16421;50.202;7.852;2023-03-01T14:28:14;13.77;;;6.35;;
29218;SDS011;16421;50.202;7.852;2023-03-01T14:33:22;9.10;;;5.95;;
29218;SDS011;16421;50.202;7.852;2023-03-01T14:38:33;9.18;;;5.20;;
29218;SDS011;16421;50.202;7.852;2023-03-01T14:43:41;6.18;;;3.95;;
29218;SDS011;16421;50.202;7.852;2023-03-01T14:48:51;5.45;;;3.78;;
29218;SDS011;16421;50.202;7.852;2023-03-01T14:54:02;6.65;;;4.55;;
29218;SDS011;16421;50.202;7.852;2023-03-01T14:59:07;8.43;;;5.53;;
29218;SDS011;16421;50.202;7.852;2023-03-01T15:04:12;7.83;;;4.93;;
29218;SDS011;16421;50.202;7.852;2023-03-01T15:14:42;8.25;;;5.35;;
29218;SDS011;16421;50.202;7.852;2023-03-01T15:20:03;11.95;;;6.35;;
29218;SDS011;16421;50.202;7.852;2023-03-01T15:25:15;8.43;;;4.70;;
29218;SDS011;16421;50.202;7.852;2023-03-01T15:30:21;13.23;;;4.63;;
29218;SDS011;16421;50.202;7.852;2023-03-01T15:35:38;7.53;;;4.82;;
29218;SDS011;16421;50.202;7.852;2023-03-01T15:40:50;6.90;;;3.92;;
29218;SDS011;16421;50.202;7.852;2023-03-01T15:45:56;6.57;;;4.20;;
29218;SDS011;16421;50.202;7.852;2023-03-01T15:51:00;6.70;;;4.15;;
29218;SDS011;16421;50.202;7.852;2023-03-01T15:56:08;6.70;;;4.43;;
29218;SDS011;16421;50.202;7.852;2023-03-01T16:01:13;5.15;;;3.38;;
29218;SDS011;16421;50.202;7.852;2023-03-01T16:06:18;6.38;;;3.40;;
29218;SDS011;16421;50.202;7.852;2023-03-01T16:11:24;7.78;;;3.67;;
29218;SDS011;16421;50.202;7.852;2023-03-01T16:16:27;5.00;;;3.80;;
29218;SDS011;16421;50.202;7.852;2023-03-01T16:21:31;10.07;;;5.45;;
29218;SDS011;16421;50.202;7.852;2023-03-01T16:26:37;5.90;;;4.10;;
29218;SDS011;16421;50.202;7.852;2023-03-01T16:31:44;4.75;;;3.25;;
29218;SDS011;16421;50.202;7.852;2023-03-01T16:36:48;5.03;;;2.90;;
29218;SDS011;16421;50.202;7.852;2023-03-01T16:41:54;5.30;;;3.15;;
29218;SDS011;16421;50.202;7.852;2023-03-01T16:46:57;4.45;;;3.33;;
29218;SDS011;16421;50.202;7.852;2023-03-01T16:52:01;3.97;;;3.30;;
29218;SDS011;16421;50.202;7.852;2023-03-01T16:57:10;5.55;;;3.00;;
29218;SDS011;16421;50.202;7.852;2023-03-01T17:02:14;5.18;;;2.50;;
29218;SDS011;16421;50.202;7.852;2023-03-01T17:07:21;3.95;;;2.35;;
29218;SDS011;16421;50.202;7.852;2023-03-01T17:12:26;2.65;;;2.17;;
29218;SDS011;16421;50.202;7.852;2023-03-01T17:17:30;3.70;;;2.45;;
29218;SDS011;16421;50.202;7.852;2023-03-01T17:22:34;3.53;;;2.53;;
29218;SDS011;16421;50.202;7.852;2023-03-01T17:27:42;5.13;;;2.97;;
29218;SDS011;16421;50.202;7.852;2023-03-01T17:32:47;3.33;;;2.20;;
29218;SDS011;16421;50.202;7.852;2023-03-01T17:37:51;3.63;;;2.60;;
29218;SDS011;16421;50.202;7.852;2023-03-01T17:42:56;3.85;;;2.55;;
29218;SDS011;16421;50.202;7.852;2023-03-01T17:48:02;3.53;;;2.63;;
29218;SDS011;16421;50.202;7.852;2023-03-01T17:53:07;3.35;;;2.25;;
29218;SDS011;16421;50.202;7.852;2023-03-01T17:58:15;3.10;;;2.13;;
29218;SDS011;16421;50.202;7.852;2023-03-01T18:03:25;3.72;;;2.47;;
29218;SDS011;16421;50.202;7.852;2023-03-01T18:08:34;3.63;;;2.50;;
29218;SDS011;16421;50.202;7.852;2023-03-01T18:13:44;3.10;;;2.08;;
29218;SDS011;16421;50.202;7.852;2023-03-01T18:18:51;3.58;;;2.33;;
29218;SDS011;16421;50.202;7.852;2023-03-01T18:23:56;5.05;;;3.33;;
29218;SDS011;16421;50.202;7.852;2023-03-01T18:29:01;3.17;;;2.40;;
29218;SDS011;16421;50.202;7.852;2023-03-01T18:34:05;5.88;;;3.17;;
29218;SDS011;16421;50.202;7.852;2023-03-01T18:39:08;6.07;;;3.50;;
29218;SDS011;16421;50.202;7.852;2023-03-01T18:44:13;6.30;;;3.33;;
29218;SDS011;16421;50.202;7.852;2023-03-01T18:49:17;5.35;;;3.40;;
29218;SDS011;16421;50.202;7.852;2023-03-01T18:54:21;4.03;;;2.72;;
29218;SDS011;16421;50.202;7.852;2023-03-01T18:59:26;3.95;;;2.50;;
29218;SDS011;16421;50.202;7.852;2023-03-01T19:04:30;4.03;;;2.55;;
29218;SDS011;16421;50.202;7.852;2023-03-01T19:09:38;4.43;;;3.15;;
29218;SDS011;16421;50.202;7.852;2023-03-01T19:14:42;4.63;;;2.80;;
29218;SDS011;16421;50.202;7.852;2023-03-01T19:19:46;5.50;;;3.22;;
29218;SDS011;16421;50.202;7.852;2023-03-01T19:24:50;4.55;;;2.92;;
29218;SDS011;16421;50.202;7.852;2023-03-01T19:29:54;4.22;;;2.75;;
29218;SDS011;16421;50.202;7.852;2023-03-01T19:34:58;4.55;;;3.17;;
29218;SDS011;16421;50.202;7.852;2023-03-01T19:40:01;4.65;;;3.38;;
29218;SDS011;16421;50.202;7.852;2023-03-01T19:45:09;5.93;;;3.28;;
29218;SDS011;16421;50.202;7.852;2023-03-01T19:50:15;6.15;;;3.55;;
29218;SDS011;16421;50.202;7.852;2023-03-01T19:55:18;5.40;;;3.42;;
29218;SDS011;16421;50.202;7.852;2023-03-01T20:00:23;5.47;;;3.50;;
29218;SDS011;16421;50.202;7.852;2023-03-01T20:05:26;5.18;;;3.20;;
29218;SDS011;16421;50.202;7.852;2023-03-01T20:10:30;4.25;;;2.80;;
29218;SDS011;16421;50.202;7.852;2023-03-01T20:15:36;5.95;;;3.63;;
29218;SDS011;16421;50.202;7.852;2023-03-01T20:20:46;7.18;;;3.42;;
29218;SDS011;16421;50.202;7.852;2023-03-01T20:25:50;6.50;;;4.10;;
29218;SDS011;16421;50.202;7.852;2023-03-01T20:31:04;6.75;;;3.67;;
29218;SDS011;16421;50.202;7.852;2023-03-01T20:36:09;9.10;;;3.90;;
29218;SDS011;16421;50.202;7.852;2023-03-01T20:41:13;5.03;;;2.72;;
29218;SDS011;16421;50.202;7.852;2023-03-01T20:46:18;3.88;;;2.67;;
29218;SDS011;16421;50.202;7.852;2023-03-01T20:51:23;4.93;;;3.05;;
29218;SDS011;16421;50.202;7.852;2023-03-01T20:56:27;5.13;;;2.55;;
29218;SDS011;16421;50.202;7.852;2023-03-01T21:01:38;3.75;;;2.85;;
29218;SDS011;16421;50.202;7.852;2023-03-01T21:06:42;6.72;;;3.33;;
29218;SDS011;16421;50.202;7.852;2023-03-01T21:11:47;5.50;;;3.28;;
29218;SDS011;16421;50.202;7.852;2023-03-01T21:16:54;6.28;;;3.20;;
29218;SDS011;16421;50.202;7.852;2023-03-01T21:21:57;4.93;;;2.92;;
29218;SDS011;16421;50.202;7.852;2023-03-01T21:27:00;4.53;;;3.13;;
29218;SDS011;16421;50.202;7.852;2023-03-01T21:32:08;4.05;;;2.78;;
29218;SDS011;16421;50.202;7.852;2023-03-01T21:37:12;5.63;;;3.30;;
29218;SDS011;16421;50.202;7.852;2023-03-01T21:42:17;4.45;;;3.10;;
29218;SDS011;16421;50.202;7.852;2023-03-01T21:47:21;5.78;;;3.25;;
29218;SDS011;16421;50.202;7.852;2023-03-01T21:52:25;5.20;;;3.30;;
29218;SDS011;16421;50.202;7.852;2023-03-01T21:57:28;5.88;;;3.38;;
29218;SDS011;16421;50.202;7.852;2023-03-01T22:02:33;5.38;;;3.20;;
29218;SDS011;16421;50.202;7.852;2023-03-01T22:07:36;4.63;;;3.00;;
29218;SDS011;16421;50.202;7.852;2023-03-01T22:12:39;7.53;;;3.22;;
29218;SDS011;16421;50.202;7.852;2023-03-01T22:17:44;4.93;;;3.22;;
29218;SDS011;16421;50.202;7.852;2023-03-01T22:22:47;5.50;;;3.42;;
29218;SDS011;16421;50.202;7.852;2023-03-01T22:27:50;5.80;;;3.75;;
29218;SDS011;16421;50.202;7.852;2023-03-01T22:32:55;4.65;;;3.55;;
29218;SDS011;16421;50.202;7.852;2023-03-01T22:37:58;8.13;;;3.88;;
29218;SDS011;16421;50.202;7.852;2023-03-01T22:43:02;6.40;;;3.92;;
29218;SDS011;16421;50.202;7.852;2023-03-01T22:48:07;5.10;;;3.50;;
29218;SDS011;16421;50.202;7.852;2023-03-01T22:53:10;7.75;;;4.05;;
29218;SDS011;16421;50.202;7.852;2023-03-01T22:58:13;6.00;;;3.47;;
29218;SDS011;16421;50.202;7.852;2023-03-01T23:03:18;5.20;;;3.60;;
29218;SDS011;16421;50.202;7.852;2023-03-01T23:08:21;6.05;;;3.58;;
29218;SDS011;16421;50.202;7.852;2023-03-01T23:13:25;6.55;;;3.45;;
29218;SDS011;16421;50.202;7.852;2023-03-01T23:18:29;6.20;;;3.42;;
29218;SDS011;16421;50.202;7.852;2023-03-01T23:23:33;8.27;;;4.05;;
29218;SDS011;16421;50.202;7.852;2023-03-01T23:28:36;6.22;;;4.07;;
29218;SDS011;16421;50.202;7.852;2023-03-01T23:33:42;9.75;;;4.20;;
29218;SDS011;16421;50.202;7.852;2023-03-01T23:38:47;5.13;;;3.42;;
29218;SDS011;16421;50.202;7.852;2023-03-01T23:43:52;6.35;;;4.03;;
29218;SDS011;16421;50.202;7.852;2023-03-01T23:48:58;7.10;;;4.20;;
29218;SDS011;16421;50.202;7.852;2023-03-01T23:54:02;7.43;;;3.87;;
29218;SDS011;16421;50.202;7.852;2023-03-01T23:59:07;6.50;;;4.05;;
